Time;durP1;ratioP1;P1;durP2;ratioP2;P2;SDS_P1;SDS_P2;PMS_P1;PMS_P2;Temp;Humidity;BMP_temperature;BMP_pressure;BME280_temperature;BME280_humidity;BME280_pressure;Samples;Min_cycle;Max_cycle;Signal;HPM_P1;HPM_P2
2021/01/26 00:02:22;;;;;;;;;;;;;;;-0.15;100.00;100092.00;5112181;28;19931;-69
2021/01/26 00:04:49;;;;;;;;;;;;;;;-0.15;100.00;100102.69;5112297;28;19967;-70
2021/01/26 00:07:15;;;;;;;;;;;;;;;-0.11;100.00;100109.59;5112019;28;19974;-69
2021/01/26 00:09:40;;;;;;;;;;;;;;;-0.13;100.00;100104.34;5110997;28;19928;-69
2021/01/26 00:12:08;;;;;;;;;;;;;;;-0.12;100.00;100100.75;5112113;28;19924;-69
2021/01/26 00:14:34;;;;;;;;;;;;;;;-0.10;100.00;100103.34;5112444;28;20316;-69
2021/01/26 00:17:00;;;;;;;;;;;;;;;-0.11;100.00;100112.28;5111953;28;19923;-69
2021/01/26 00:19:25;;;;;;;;;;;;;;;-0.10;100.00;100116.69;5112101;28;19924;-69
2021/01/26 00:21:52;;;;;;;;;;;;;;;-0.13;100.00;100114.13;5112071;28;19927;-69
2021/01/26 00:24:18;;;;;;;;;;;;;;;-0.21;100.00;100112.69;5112054;28;19970;-69
2021/01/26 00:26:43;;;;;;;;;;;;;;;-0.24;100.00;100120.84;5111623;28;19932;-69
2021/01/26 00:29:09;;;;;;;;;;;;;;;-0.24;100.00;100126.19;5112013;28;20369;-69
2021/01/26 00:31:36;;;;;;;;;;;;;;;-0.25;100.00;100127.13;5111929;28;19932;-69
2021/01/26 00:34:01;;;;;;;;;;;;;;;-0.29;100.00;100133.53;5111827;28;20019;-69
2021/01/26 00:36:27;;;;;;;;;;;;;;;-0.32;100.00;100132.78;5111489;28;20302;-68
2021/01/26 00:38:54;;;;;;;;;;;;;;;-0.36;100.00;100126.72;5111847;28;20046;-69
2021/01/26 00:41:20;;;;;;;;;;;;;;;-0.39;100.00;100132.22;5111821;28;20014;-68
2021/01/26 00:43:45;;;;;;;;;;;;;;;-0.40;100.00;100135.81;5112046;28;19981;-69
2021/01/26 00:46:11;;;;;;;;;;;;;;;-0.38;100.00;100140.13;5111559;28;20019;-69
2021/01/26 00:48:37;;;;;;;;;;;;;;;-0.35;100.00;100139.13;5111488;28;19928;-69
2021/01/26 00:51:04;;;;;;;;;;;;;;;-0.37;100.00;100141.03;5110636;28;19947;-69
2021/01/26 00:53:30;;;;;;;;;;;;;;;-0.38;100.00;100140.13;5110472;28;20018;-69
2021/01/26 00:56:03;;;;;;;;;;;;;;;-0.36;100.00;100145.41;5110291;28;20389;-69
2021/01/26 00:58:29;;;;;;;;;;;;;;;-0.35;100.00;100142.69;5105322;28;19924;-69
2021/01/26 01:00:56;;;;;;;;;;;;;;;-0.34;100.00;100149.72;5110543;28;19923;-69
2021/01/26 01:03:24;;;;;;;;;;;;;;;-0.35;100.00;100148.03;5110473;28;19931;-69
2021/01/26 01:05:50;;;;;;;;;;;;;;;-0.32;100.00;100143.47;5111544;28;19924;-70
2021/01/26 01:08:15;;;;;;;;;;;;;;;-0.31;100.00;100146.06;5111707;28;19965;-69
2021/01/26 01:10:41;;;;;;;;;;;;;;;-0.31;100.00;100148.72;5112437;28;19930;-69
2021/01/26 01:13:09;;;;;;;;;;;;;;;-0.32;100.00;100147.03;5115770;28;19923;-69
2021/01/26 01:15:35;;;;;;;;;;;;;;;-0.32;100.00;100155.03;5115367;28;19959;-69
2021/01/26 01:18:01;;;;;;;;;;;;;;;-0.32;100.00;100149.69;5115742;28;20014;-69
2021/01/26 01:20:27;;;;;;;;;;;;;;;-0.32;100.00;100149.69;5115558;28;20028;-69
2021/01/26 01:22:53;;;;;;;;;;;;;;;-0.32;100.00;100149.69;5115620;28;20022;-69
2021/01/26 01:25:19;;;;;;;;;;;;;;;-0.34;100.00;100151.53;5115452;28;19931;-69
2021/01/26 01:27:45;;;;;;;;;;;;;;;-0.35;100.00;100145.34;5115322;28;19932;-69
2021/01/26 01:30:15;;;;;;;;;;;;;;;-0.33;100.00;100147.94;5115513;27;20282;-69
2021/01/26 01:32:40;;;;;;;;;;;;;;;-0.36;100.00;100145.41;5115114;28;19927;-69
2021/01/26 01:35:07;;;;;;;;;;;;;;;-0.32;100.00;100143.47;5115268;28;19924;-69
2021/01/26 01:37:33;;;;;;;;;;;;;;;-0.33;100.00;100142.63;5115023;28;20015;-69
2021/01/26 01:39:58;;;;;;;;;;;;;;;-0.36;100.00;100148.94;5115105;28;19924;-69
2021/01/26 01:42:24;;;;;;;;;;;;;;;-0.33;100.00;100153.28;5115088;28;19928;-69
2021/01/26 01:44:50;;;;;;;;;;;;;;;-0.32;100.00;100154.13;5115110;28;19986;-69
2021/01/26 01:47:19;;;;;;;;;;;;;;;-0.39;100.00;100135.75;5113614;28;19931;-69
2021/01/26 01:49:47;;;;;;;;;;;;;;;-0.35;100.00;100152.47;5114934;28;19935;-69
2021/01/26 01:52:15;;;;;;;;;;;;;;;-0.36;100.00;100142.72;5115161;28;20026;-69
2021/01/26 01:54:43;;;;;;;;;;;;;;;-0.36;100.00;100142.72;5115471;28;19923;-69
2021/01/26 01:57:15;;;;;;;;;;;;;;;-0.36;100.00;100146.28;5115167;28;20048;-69
2021/01/26 01:59:43;;;;;;;;;;;;;;;-0.38;100.00;100150.81;5115574;28;20030;-69
2021/01/26 02:02:10;;;;;;;;;;;;;;;-0.43;100.00;100147.47;5115463;28;19924;-69
2021/01/26 02:04:37;;;;;;;;;;;;;;;-0.41;100.00;100150.09;5115406;28;19963;-69
2021/01/26 02:07:04;;;;;;;;;;;;;;;-0.46;100.00;100155.63;5114880;28;19931;-69
2021/01/26 02:09:31;;;;;;;;;;;;;;;-0.46;100.00;100152.97;5115272;28;19928;-69
2021/01/26 02:11:57;;;;;;;;;;;;;;;-0.47;100.00;100150.38;5115191;28;19928;-69
2021/01/26 02:14:24;;;;;;;;;;;;;;;-0.49;100.00;100158.44;5115142;28;20031;-69
2021/01/26 02:16:59;;;;;;;;;;;;;;;-0.50;100.00;100162.03;5114704;28;19931;-69
2021/01/26 02:19:43;;;;;;;;;;;;;;;-0.53;100.00;100163.03;5115019;28;19923;-69
2021/01/26 02:22:30;;;;;;;;;;;;;;;-0.55;100.00;100154.25;5114376;28;20015;-69
2021/01/26 02:25:15;;;;;;;;;;;;;;;-0.55;100.00;100154.25;5114501;28;20006;-69
2021/01/26 02:27:59;;;;;;;;;;;;;;;-0.60;100.00;100156.25;5114099;28;19978;-69
2021/01/26 02:30:44;;;;;;;;;;;;;;;-0.59;100.00;100163.31;5114257;28;20035;-69
2021/01/26 02:33:27;;;;;;;;;;;;;;;-0.58;100.00;100174.84;5114123;28;19989;-69
2021/01/26 02:36:04;;;;;;;;;;;;;;;-0.61;100.00;100173.19;5114187;28;20057;-69
2021/01/26 02:38:47;;;;;;;;;;;;;;;-0.60;100.00;100177.59;5114401;28;19928;-69
2021/01/26 02:41:17;;;;;;;;;;;;;;;-0.61;100.00;100181.16;5113903;28;20014;-69
2021/01/26 02:43:56;;;;;;;;;;;;;;;-0.60;100.00;100168.69;5113989;28;19971;-69
2021/01/26 02:46:28;;;;;;;;;;;;;;;-0.64;100.00;100175.97;5113622;28;19924;-69
2021/01/26 02:49:03;;;;;;;;;;;;;;;-0.64;100.00;100185.75;5113942;28;20014;-69
2021/01/26 02:51:33;;;;;;;;;;;;;;;-0.65;100.00;100187.56;5112645;28;19978;-69
2021/01/26 02:54:02;;;;;;;;;;;;;;;-0.70;100.00;100173.56;5113780;28;19928;-69
2021/01/26 02:56:33;;;;;;;;;;;;;;;-0.72;100.00;100178.09;5113333;28;19939;-69
2021/01/26 02:59:02;;;;;;;;;;;;;;;-0.74;100.00;100177.31;5113756;28;19924;-69
2021/01/26 03:01:32;;;;;;;;;;;;;;;-0.76;100.00;100181.81;5113590;28;20344;-69
2021/01/26 03:04:00;;;;;;;;;;;;;;;-0.76;100.00;100187.16;5113669;28;19970;-69
2021/01/26 03:06:28;;;;;;;;;;;;;;;-0.76;100.00;100181.81;5113153;28;19985;-69
2021/01/26 03:08:58;;;;;;;;;;;;;;;-0.76;100.00;100188.03;5113438;28;19967;-69
2021/01/26 03:11:27;;;;;;;;;;;;;;;-0.78;100.00;100186.38;5113263;28;19970;-69
2021/01/26 03:13:56;;;;;;;;;;;;;;;-0.80;100.00;100182.88;5111864;28;19968;-69
2021/01/26 03:16:23;;;;;;;;;;;;;;;-0.83;100.00;100186.53;5113026;28;19963;-69
2021/01/26 03:18:52;;;;;;;;;;;;;;;-0.89;100.00;100187.69;5113334;28;19955;-69
2021/01/26 03:21:19;;;;;;;;;;;;;;;-0.94;100.00;100181.69;5113290;28;19956;-69
2021/01/26 03:23:47;;;;;;;;;;;;;;;-0.99;100.00;100185.47;5111917;28;20369;-69
2021/01/26 03:26:16;;;;;;;;;;;;;;;-1.08;100.00;100184.03;5112873;28;20022;-69
2021/01/26 03:28:44;;;;;;;;;;;;;;;-1.17;100.00;100190.63;5112959;28;20404;-69
2021/01/26 03:31:13;;;;;;;;;;;;;;;-1.26;100.00;100189.19;5113095;28;19930;-69
2021/01/26 03:33:42;;;;;;;;;;;;;;;-1.33;100.00;100192.19;5112214;28;20020;-69
2021/01/26 03:36:08;;;;;;;;;;;;;;;-1.42;100.00;100191.63;5112715;28;19956;-69
2021/01/26 03:38:34;;;;;;;;;;;;;;;-1.47;100.00;100195.41;5112803;28;19997;-69
2021/01/26 03:41:01;;;;;;;;;;;;;;;-1.53;100.00;100191.19;5112874;28;19959;-69
2021/01/26 03:43:27;;;;;;;;;;;;;;;-1.58;100.00;100196.69;5112749;28;19968;-69
2021/01/26 03:45:56;;;;;;;;;;;;;;;-1.67;100.00;100194.41;5112562;28;19924;-69
2021/01/26 03:48:31;;;;;;;;;;;;;;;-1.70;100.00;100194.50;5112805;28;19990;-69
2021/01/26 03:51:02;;;;;;;;;;;;;;;-1.72;100.00;100196.38;5112951;28;19959;-69
2021/01/26 03:53:53;;;;;;;;;;;;;;;-1.73;100.00;100202.63;5112593;28;19931;-69
2021/01/26 03:56:22;;;;;;;;;;;;;;;-1.78;100.00;100201.94;5111044;28;19959;-69
2021/01/26 03:58:54;;;;;;;;;;;;;;;-1.82;100.00;100200.31;5112618;28;19924;-69
2021/01/26 04:01:23;;;;;;;;;;;;;;;-1.92;100.00;100187.38;5112646;28;19974;-69
2021/01/26 04:03:57;;;;;;;;;;;;;;;-1.94;100.00;100197.19;5112578;28;19934;-70
2021/01/26 04:06:29;;;;;;;;;;;;;;;-1.95;100.00;100195.47;5111014;28;20043;-69
2021/01/26 04:08:56;;;;;;;;;;;;;;;-1.98;100.00;100195.56;5112484;28;19970;-69
2021/01/26 04:11:24;;;;;;;;;;;;;;;-2.03;100.00;100192.25;5112214;28;19962;-69
2021/01/26 04:13:55;;;;;;;;;;;;;;;-2.08;100.00;100200.38;5112281;28;19967;-70
2021/01/26 04:16:23;;;;;;;;;;;;;;;-2.09;100.00;100195.13;5111970;28;19970;-70
2021/01/26 04:18:50;;;;;;;;;;;;;;;-2.12;100.00;100201.41;5112147;28;20365;-69
2021/01/26 04:21:17;;;;;;;;;;;;;;;-2.13;100.00;100193.50;5112177;28;20331;-70
2021/01/26 04:23:43;;;;;;;;;;;;;;;-2.15;100.00;100198.88;5112094;28;20024;-70
2021/01/26 04:26:10;;;;;;;;;;;;;;;-2.20;100.00;100193.72;5111764;28;20401;-70
2021/01/26 04:28:37;;;;;;;;;;;;;;;-2.23;100.00;100199.16;5112115;28;20405;-70
2021/01/26 04:31:04;;;;;;;;;;;;;;;-2.26;100.00;100196.63;5112183;28;20428;-70
2021/01/26 04:33:30;;;;;;;;;;;;;;;-2.27;100.00;100205.50;5111910;28;20019;-69
2021/01/26 04:35:55;;;;;;;;;;;;;;;-2.30;100.00;100204.75;5111757;28;19945;-70
2021/01/26 04:38:22;;;;;;;;;;;;;;;-2.35;100.00;100199.59;5112032;28;19977;-69
2021/01/26 04:40:48;;;;;;;;;;;;;;;-2.34;100.00;100203.97;5111928;28;20349;-69
2021/01/26 04:43:19;;;;;;;;;;;;;;;-2.33;100.00;100207.53;5111917;28;19928;-70
2021/01/26 04:45:51;;;;;;;;;;;;;;;-2.34;100.00;100208.44;5114019;28;19955;-70
2021/01/26 04:48:21;;;;;;;;;;;;;;;-2.39;100.00;100208.63;5095848;28;20360;-70
2021/01/26 04:50:50;;;;;;;;;;;;;;;-2.42;100.00;100217.56;5095747;28;19928;-70
2021/01/26 04:53:34;;;;;;;;;;;;;;;-2.45;100.00;100216.81;5095751;28;19970;-69
2021/01/26 04:56:05;;;;;;;;;;;;;;;-2.48;100.00;100214.25;5091486;28;19970;-69
2021/01/26 04:58:40;;;;;;;;;;;;;;;-2.53;100.00;100209.94;5095617;28;19967;-69
2021/01/26 05:01:13;;;;;;;;;;;;;;;-2.60;100.00;100211.09;5095623;28;20347;-69
2021/01/26 05:03:48;;;;;;;;;;;;;;;-2.66;100.00;100208.66;5095531;28;20032;-69
2021/01/26 05:06:16;;;;;;;;;;;;;;;-2.73;100.00;100205.34;5095238;28;19924;-69
2021/01/26 05:08:44;;;;;;;;;;;;;;;-2.77;100.00;100205.50;5095430;28;20026;-71
2021/01/26 05:11:12;;;;;;;;;;;;;;;-2.78;100.00;100199.34;5094223;28;19963;-69
2021/01/26 05:13:39;;;;;;;;;;;;;;;-2.78;100.00;100204.66;5095314;28;20038;-70
2021/01/26 05:16:08;;;;;;;;;;;;;;;-2.80;100.00;100205.63;5095052;28;19924;-70
2021/01/26 05:18:36;;;;;;;;;;;;;;;-2.86;100.00;100207.56;5095364;28;20013;-68
2021/01/26 05:21:04;;;;;;;;;;;;;;;-2.86;100.00;100204.91;5095329;28;20449;-67
2021/01/26 05:23:32;;;;;;;;;;;;;;;-2.88;100.00;100209.38;5096074;28;20376;-67
2021/01/26 05:25:58;;;;;;;;;;;;;;;-2.88;100.00;100214.69;5110340;28;19959;-67
2021/01/26 05:28:25;;;;;;;;;;;;;;;-2.92;100.00;100209.56;5114582;28;20484;-67
2021/01/26 05:30:55;;;;;;;;;;;;;;;-2.98;100.00;100207.09;5115249;28;19967;-67
2021/01/26 05:33:21;;;;;;;;;;;;;;;-3.04;100.00;100208.19;5107186;28;19924;-68
2021/01/26 05:35:50;;;;;;;;;;;;;;;-3.05;100.00;100209.09;5094415;28;20024;-67
2021/01/26 05:38:17;;;;;;;;;;;;;;;-3.13;100.00;100217.31;5099885;28;19923;-67
2021/01/26 05:40:44;;;;;;;;;;;;;;;-3.16;100.00;100212.09;5101109;28;19981;-67
2021/01/26 05:43:12;;;;;;;;;;;;;;;-3.17;100.00;100220.13;5099583;28;20341;-67
2021/01/26 05:45:40;;;;;;;;;;;;;;;-3.17;100.00;100214.81;5114183;28;20352;-67
2021/01/26 05:48:07;;;;;;;;;;;;;;;-3.18;100.00;100221.03;5094362;28;20356;-67
2021/01/26 05:50:34;;;;;;;;;;;;;;;-3.15;100.00;100227.13;5094418;28;19982;-67
2021/01/26 05:53:04;;;;;;;;;;;;;;;-3.16;100.00;100232.50;5094151;28;19974;-67
2021/01/26 05:55:31;;;;;;;;;;;;;;;-3.22;100.00;100231.75;5093646;28;19924;-67
2021/01/26 05:58:05;;;;;;;;;;;;;;;-3.25;100.00;100233.63;5093577;28;19967;-67
2021/01/26 06:00:31;;;;;;;;;;;;;;;-3.28;100.00;100242.56;5094035;28;19924;-67
2021/01/26 06:03:06;;;;;;;;;;;;;;;-3.29;100.00;100237.31;5094507;28;19924;-67
2021/01/26 06:05:32;;;;;;;;;;;;;;;-3.30;100.00;100239.09;5093412;28;20424;-67
2021/01/26 06:08:08;;;;;;;;;;;;;;;-3.31;100.00;100242.69;5094108;28;19931;-67
2021/01/26 06:10:35;;;;;;;;;;;;;;;-3.32;100.00;100235.63;5093600;28;19977;-67
2021/01/26 06:13:03;;;;;;;;;;;;;;;-3.32;100.00;100238.28;5093946;28;19924;-67
2021/01/26 06:15:30;;;;;;;;;;;;;;;-3.30;100.00;100238.22;5093730;28;19932;-67
2021/01/26 06:18:10;;;;;;;;;;;;;;;-3.27;100.00;100246.97;5092574;28;19931;-67
2021/01/26 06:20:38;;;;;;;;;;;;;;;-3.26;100.00;100242.50;5093432;28;20030;-68
2021/01/26 06:23:12;;;;;;;;;;;;;;;-3.24;100.00;100241.56;5094071;28;19981;-68
2021/01/26 06:25:40;;;;;;;;;;;;;;;-3.28;100.00;100250.53;5093542;28;19930;-68
2021/01/26 06:28:12;;;;;;;;;;;;;;;-3.26;100.00;100251.38;5093597;28;19924;-69
2021/01/26 06:30:42;;;;;;;;;;;;;;;-3.28;100.00;100247.03;5095143;28;20355;-68
2021/01/26 06:33:21;;;;;;;;;;;;;;;-3.30;100.00;100260.34;5102529;28;19924;-69
2021/01/26 06:35:54;;;;;;;;;;;;;;;-3.27;100.00;100262.03;5113854;28;19980;-69
2021/01/26 06:38:29;;;;;;;;;;;;;;;-3.26;100.00;100253.13;5094540;28;20322;-68
2021/01/26 06:41:07;;;;;;;;;;;;;;;-3.31;100.00;100255.94;5093796;28;19936;-68
2021/01/26 06:43:52;;;;;;;;;;;;;;;-3.31;100.00;100257.72;5107366;28;19932;-69
2021/01/26 06:46:26;;;;;;;;;;;;;;;-3.39;100.00;100265.94;5107786;28;20023;-68
2021/01/26 06:49:02;;;;;;;;;;;;;;;-3.41;100.00;100257.16;5106330;28;19924;-67
2021/01/26 06:51:33;;;;;;;;;;;;;;;-3.44;100.00;100262.56;5102818;28;19923;-67
2021/01/26 06:54:04;;;;;;;;;;;;;;;-3.43;100.00;100275.78;5113141;28;20026;-67
2021/01/26 06:56:42;;;;;;;;;;;;;;;-3.44;100.00;100273.16;5093109;28;19924;-67
2021/01/26 06:59:20;;;;;;;;;;;;;;;-3.40;100.00;100275.66;5093179;28;19924;-68
2021/01/26 07:01:54;;;;;;;;;;;;;;;-3.45;100.00;100271.44;5093328;28;19928;-67
2021/01/26 07:04:26;;;;;;;;;;;;;;;-3.43;100.00;100272.25;5092892;28;20301;-67
2021/01/26 07:07:06;;;;;;;;;;;;;;;-3.47;100.00;100267.97;5092230;28;20327;-68
2021/01/26 07:09:45;;;;;;;;;;;;;;;-3.41;100.00;100278.38;5100095;28;20461;-66
2021/01/26 07:12:36;;;;;;;;;;;;;;;-3.38;100.00;100272.97;5108652;28;19984;-67
2021/01/26 07:15:08;;;;;;;;;;;;;;;-3.35;100.00;100272.88;5112671;28;19923;-67
2021/01/26 07:17:40;;;;;;;;;;;;;;;-3.30;100.00;100273.63;5113029;28;19932;-67
2021/01/26 07:20:16;;;;;;;;;;;;;;;-3.26;100.00;100275.25;5104058;28;19924;-67
2021/01/26 07:22:50;;;;;;;;;;;;;;;-3.21;100.00;100270.69;5107684;28;19971;-67
2021/01/26 07:25:22;;;;;;;;;;;;;;;-3.11;100.00;100271.25;5112486;28;19989;-67
2021/01/26 07:28:02;;;;;;;;;;;;;;;-3.01;100.00;100276.25;5112973;28;19971;-68
2021/01/26 07:30:31;;;;;;;;;;;;;;;-2.90;100.00;100276.78;5092327;28;19969;-67
2021/01/26 07:33:00;;;;;;;;;;;;;;;-2.77;100.00;100279.91;5092583;28;20400;-67
2021/01/26 07:35:31;;;;;;;;;;;;;;;-2.64;100.00;100278.56;5092400;28;19930;-68
2021/01/26 07:37:59;;;;;;;;;;;;;;;-2.48;100.00;100280.72;5095996;28;19993;-67
2021/01/26 07:40:29;;;;;;;;;;;;;;;-2.29;100.00;100278.28;5092683;28;20011;-68
2021/01/26 07:43:00;;;;;;;;;;;;;;;-2.10;100.00;100290.00;5102821;28;20004;-67
2021/01/26 07:45:29;;;;;;;;;;;;;;;-1.86;100.00;100290.03;5110718;28;19923;-67
2021/01/26 07:48:02;;;;;;;;;;;;;;;-1.81;100.00;100289.88;5101831;28;19924;-67
2021/01/26 07:50:32;;;;;;;;;;;;;;;-1.81;100.00;100293.38;5100539;28;20021;-67
2021/01/26 07:53:00;;;;;;;;;;;;;;;-1.91;100.00;100298.19;5105488;28;19989;-67
2021/01/26 07:55:28;;;;;;;;;;;;;;;-1.91;100.00;100298.19;5102881;28;19923;-67
2021/01/26 07:57:57;;;;;;;;;;;;;;;-1.94;100.00;100300.94;5107967;28;20396;-67
2021/01/26 08:00:25;;;;;;;;;;;;;;;-1.95;100.00;100301.88;5109369;28;20365;-67
2021/01/26 08:02:52;;;;;;;;;;;;;;;-1.94;100.00;100297.44;5111491;28;19982;-67
2021/01/26 08:05:19;;;;;;;;;;;;;;;-2.00;100.00;100298.53;5112442;28;19955;-67
2021/01/26 08:07:46;;;;;;;;;;;;;;;-1.96;100.00;100299.28;5111486;28;19928;-67
2021/01/26 08:10:16;;;;;;;;;;;;;;;-1.92;100.00;100306.22;5106304;28;19952;-67
2021/01/26 08:12:44;;;;;;;;;;;;;;;-1.95;100.00;100312.53;5092445;28;19971;-67
2021/01/26 08:15:12;;;;;;;;;;;;;;;-1.93;100.00;100310.66;5112574;28;20382;-67
2021/01/26 08:17:38;;;;;;;;;;;;;;;-1.93;100.00;100321.31;5112405;28;20298;-67
2021/01/26 08:20:06;;;;;;;;;;;;;;;-1.88;100.00;100319.34;5093361;28;19932;-69
2021/01/26 08:22:33;;;;;;;;;;;;;;;-1.89;100.00;100314.09;5097574;28;20308;-69
2021/01/26 08:25:02;;;;;;;;;;;;;;;-1.91;100.00;100318.59;5108188;28;20347;-67
2021/01/26 08:27:48;;;;;;;;;;;;;;;-1.94;100.00;100318.72;5101309;28;19943;-69
2021/01/26 08:30:21;;;;;;;;;;;;;;;-1.91;100.00;100330.13;5091951;28;20503;-66
2021/01/26 08:33:04;;;;;;;;;;;;;;;-1.86;100.00;100327.28;5096068;28;19959;-67
2021/01/26 08:35:38;;;;;;;;;;;;;;;-1.78;100.00;100335.00;5091773;28;19963;-67
2021/01/26 08:38:04;;;;;;;;;;;;;;;-1.67;100.00;100332.81;5091732;28;19928;-67
2021/01/26 08:40:48;;;;;;;;;;;;;;;-1.53;100.00;100330.50;5097621;28;19924;-67
2021/01/26 08:43:36;;;;;;;;;;;;;;;-1.42;100.00;100337.22;5110430;28;21389;-67
2021/01/26 08:46:03;;;;;;;;;;;;;;;-1.38;100.00;100342.38;5101303;28;20015;-67
2021/01/26 08:48:30;;;;;;;;;;;;;;;-1.23;100.00;100337.38;5091590;28;19952;-67
2021/01/26 08:51:04;;;;;;;;;;;;;;;-1.19;100.00;100334.56;5092139;28;20300;-67
2021/01/26 08:53:35;;;;;;;;;;;;;;;-1.12;100.00;100337.84;5097548;28;19985;-67
2021/01/26 08:56:02;;;;;;;;;;;;;;;-1.19;100.00;100337.22;5099159;28;19931;-67
2021/01/26 08:58:46;;;;;;;;;;;;;;;-1.08;100.00;100346.56;5112184;28;19963;-67
2021/01/26 09:01:32;;;;;;;;;;;;;;;-1.01;100.00;100348.94;5094937;28;20029;-67
2021/01/26 09:04:19;;;;;;;;;;;;;;;-0.91;100.00;100349.47;5081601;28;19924;-70
2021/01/26 09:06:46;;;;;;;;;;;;;;;-0.81;100.00;100351.75;5100274;28;19928;-67
2021/01/26 09:09:31;;;;;;;;;;;;;;;-0.69;100.00;100359.25;5099631;28;19986;-67
2021/01/26 09:11:59;;;;;;;;;;;;;;;-0.62;100.00;100358.06;5096150;28;19979;-67
2021/01/26 09:14:30;;;;;;;;;;;;;;;-0.59;100.00;100349.06;5090448;28;20027;-67
2021/01/26 09:16:58;;;;;;;;;;;;;;;-0.51;100.00;100342.50;5092225;28;19966;-67
2021/01/26 09:19:25;;;;;;;;;;;;;;;-0.18;100.00;100354.50;5109457;28;19970;-67
2021/01/26 09:21:51;;;;;;;;;;;;;;;0.42;100.00;100353.69;5111666;28;19966;-67
2021/01/26 09:24:19;;;;;;;;;;;;;;;0.92;100.00;100346.94;5098877;28;20002;-67
2021/01/26 09:26:45;;;;;;;;;;;;;;;1.25;100.00;100349.78;5091269;28;19977;-68
2021/01/26 09:29:21;;;;;;;;;;;;;;;0.96;100.00;100344.06;5091401;28;19924;-67
2021/01/26 09:31:47;;;;;;;;;;;;;;;1.21;100.00;100344.69;5093153;28;19967;-67
2021/01/26 09:34:13;;;;;;;;;;;;;;;1.03;100.00;100338.41;5107143;28;19930;-67
2021/01/26 09:36:39;;;;;;;;;;;;;;;0.83;100.00;100335.75;5114149;28;19935;-67
2021/01/26 09:39:06;;;;;;;;;;;;;;;0.68;100.00;100344.47;5115349;28;19924;-67
2021/01/26 09:41:33;;;;;;;;;;;;;;;0.64;100.00;100342.88;5105934;28;19928;-68
2021/01/26 09:44:03;;;;;;;;;;;;;;;0.88;100.00;100343.53;5110404;28;20015;-67
2021/01/26 09:46:32;;;;;;;;;;;;;;;1.15;100.00;100348.53;5109818;28;19963;-68
2021/01/26 09:49:15;;;;;;;;;;;;;;;1.00;100.00;100351.00;5115307;28;19955;-68
2021/01/26 09:51:42;;;;;;;;;;;;;;;0.82;100.00;100354.53;5113888;28;19966;-68
2021/01/26 09:54:11;;;;;;;;;;;;;;;0.58;100.00;100356.53;5111918;28;19966;-68
2021/01/26 09:56:38;;;;;;;;;;;;;;;0.74;100.00;100354.03;5113055;28;19976;-68
2021/01/26 09:59:04;;;;;;;;;;;;;;;1.12;100.00;100354.88;5112564;28;19923;-68
2021/01/26 10:01:32;;;;;;;;;;;;;;;1.32;100.00;100356.59;5105917;28;20461;-68
2021/01/26 10:04:00;;;;;;;;;;;;;;;1.93;100.00;100350.94;5096992;28;20384;-68
2021/01/26 10:06:26;;;;;;;;;;;;;;;2.37;100.00;100354.94;5094331;28;19967;-68
2021/01/26 10:08:52;;;;;;;;;;;;;;;2.89;100.00;100344.06;5099234;28;19924;-68
2021/01/26 10:11:20;;;;;;;;;;;;;;;3.61;100.00;100328.34;5096246;28;19982;-69
2021/01/26 10:13:46;;;;;;;;;;;;;;;4.14;100.00;100336.88;5111447;28;20296;-69
2021/01/26 10:16:23;;;;;;;;;;;;;;;4.19;100.00;100334.72;5107124;28;19924;-69
2021/01/26 10:18:50;;;;;;;;;;;;;;;4.39;100.00;100334.50;5094464;28;19981;-69
2021/01/26 10:21:24;;;;;;;;;;;;;;;4.51;100.00;100339.09;5097774;28;19963;-69
2021/01/26 10:23:57;;;;;;;;;;;;;;;4.26;100.00;100337.06;5101753;28;19976;-69
2021/01/26 10:26:24;;;;;;;;;;;;;;;4.60;100.00;100346.59;5112674;28;20401;-69
2021/01/26 10:29:12;;;;;;;;;;;;;;;4.47;100.00;100337.56;5114536;28;19977;-69
2021/01/26 10:31:40;;;;;;;;;;;;;;;4.73;100.00;100344.03;5093912;28;19984;-69
2021/01/26 10:34:16;;;;;;;;;;;;;;;4.84;100.00;100341.50;5112565;28;20313;-69
2021/01/26 10:36:42;;;;;;;;;;;;;;;4.35;100.00;100349.94;5102219;28;19982;-70
2021/01/26 10:39:20;;;;;;;;;;;;;;;4.35;100.00;100341.88;5113550;28;19959;-70
2021/01/26 10:41:46;;;;;;;;;;;;;;;3.82;100.00;100347.72;5093501;28;20389;-69
2021/01/26 10:44:14;;;;;;;;;;;;;;;3.54;100.00;100347.59;5093076;28;19924;-69
2021/01/26 10:46:41;;;;;;;;;;;;;;;3.56;100.00;100346.53;5105375;28;19927;-68
2021/01/26 10:49:11;;;;;;;;;;;;;;;3.35;100.00;100356.69;5105880;28;20350;-68
2021/01/26 10:51:39;;;;;;;;;;;;;;;3.25;100.00;100356.34;5112362;28;19927;-69
2021/01/26 10:54:05;;;;;;;;;;;;;;;3.41;100.00;100348.28;5113192;28;20034;-69
2021/01/26 10:56:31;;;;;;;;;;;;;;;3.50;100.00;100345.09;5113361;28;19924;-69
2021/01/26 10:58:57;;;;;;;;;;;;;;;3.57;100.00;100353.66;5113237;28;20297;-68
2021/01/26 11:01:23;;;;;;;;;;;;;;;3.64;100.00;100357.69;5101248;28;19928;-69
2021/01/26 11:03:49;;;;;;;;;;;;;;;3.82;100.00;100360.25;5093352;28;19924;-69
2021/01/26 11:06:15;;;;;;;;;;;;;;;3.59;100.00;100356.25;5093109;28;19970;-69
2021/01/26 11:08:43;;;;;;;;;;;;;;;3.20;100.00;100371.84;5104091;28;19974;-69
2021/01/26 11:11:10;;;;;;;;;;;;;;;2.76;100.00;100369.81;5111265;28;20019;-68
2021/01/26 11:13:36;;;;;;;;;;;;;;;2.74;100.00;100377.94;5107509;28;20034;-68
2021/01/26 11:16:02;;;;;;;;;;;;;;;2.54;100.00;100370.09;5104142;28;19973;-68
2021/01/26 11:18:28;;;;;;;;;;;;;;;2.31;100.00;100373.06;5103636;28;20036;-68
2021/01/26 11:20:54;;;;;;;;;;;;;;;2.54;100.00;100370.97;5106128;28;19928;-69
2021/01/26 11:23:19;;;;;;;;;;;;;;;2.66;100.00;100370.31;5102610;28;19923;-68
2021/01/26 11:25:46;;;;;;;;;;;;;;;2.70;100.00;100365.66;5102933;28;20397;-69
2021/01/26 11:28:12;;;;;;;;;;;;;;;2.50;100.00;100372.94;5102075;28;19962;-69
2021/01/26 11:30:38;;;;;;;;;;;;;;;2.70;100.00;100373.69;5107481;28;20872;-68
2021/01/26 11:33:04;;;;;;;;;;;;;;;2.68;100.00;100380.94;5097386;28;19938;-69
2021/01/26 11:35:30;;;;;;;;;;;;;;;2.73;100.00;100373.50;5093053;28;19924;-69
2021/01/26 11:37:57;;;;;;;;;;;;;;;2.96;100.00;100374.06;5092752;28;19924;-69
2021/01/26 11:40:23;;;;;;;;;;;;;;;2.94;100.00;100370.59;5106009;28;19970;-69
2021/01/26 11:42:49;;;;;;;;;;;;;;;2.73;100.00;100372.66;5102377;28;19951;-69
2021/01/26 11:45:18;;;;;;;;;;;;;;;2.70;100.00;100380.84;5109909;28;19927;-69
2021/01/26 11:47:43;;;;;;;;;;;;;;;2.79;100.00;100383.03;5099284;28;19970;-68
2021/01/26 11:50:11;;;;;;;;;;;;;;;2.68;100.00;100376.44;5101074;28;19924;-69
2021/01/26 11:52:37;;;;;;;;;;;;;;;2.72;100.00;100381.66;5108562;28;19924;-67
2021/01/26 11:55:03;;;;;;;;;;;;;;;2.73;100.00;100386.06;5109652;28;20026;-67
2021/01/26 11:57:29;;;;;;;;;;;;;;;2.40;100.00;100386.91;5100642;28;19975;-67
2021/01/26 11:59:56;;;;;;;;;;;;;;;2.27;100.00;100379.50;5108735;28;19932;-67
2021/01/26 12:02:21;;;;;;;;;;;;;;;1.99;100.00;100382.72;5109718;28;19931;-67
2021/01/26 12:04:47;;;;;;;;;;;;;;;1.76;100.00;100379.41;5105661;28;19928;-67
2021/01/26 12:07:13;;;;;;;;;;;;;;;1.74;100.00;100389.34;5093404;28;19946;-67
2021/01/26 12:09:39;;;;;;;;;;;;;;;1.54;100.00;100384.97;5093083;28;19969;-67
2021/01/26 12:12:05;;;;;;;;;;;;;;;1.64;100.00;100388.03;5093191;28;19928;-67
2021/01/26 12:14:31;;;;;;;;;;;;;;;1.67;100.00;100388.78;5109978;28;19973;-67
2021/01/26 12:16:58;;;;;;;;;;;;;;;1.58;100.00;100399.94;5111842;28;19924;-67
2021/01/26 12:19:23;;;;;;;;;;;;;;;1.56;100.00;100409.81;5110989;28;20424;-67
2021/01/26 12:21:49;;;;;;;;;;;;;;;1.49;100.00;100409.25;5111897;28;19931;-67
2021/01/26 12:24:15;;;;;;;;;;;;;;;1.40;100.00;100412.38;5105839;28;19924;-68
2021/01/26 12:26:41;;;;;;;;;;;;;;;1.32;100.00;100414.56;5102162;28;19927;-67
2021/01/26 12:29:07;;;;;;;;;;;;;;;1.29;100.00;100420.91;5111161;28;19931;-67
2021/01/26 12:31:32;;;;;;;;;;;;;;;1.33;100.00;100422.50;5107491;28;19931;-67
2021/01/26 12:33:59;;;;;;;;;;;;;;;1.13;100.00;100423.44;5091353;28;19924;-67
2021/01/26 12:36:25;;;;;;;;;;;;;;;1.17;100.00;100422.34;5104424;28;19978;-67
2021/01/26 12:38:51;;;;;;;;;;;;;;;1.21;100.00;100417.75;5112009;28;19932;-67
2021/01/26 12:41:16;;;;;;;;;;;;;;;1.21;100.00;100414.22;5110600;28;19954;-67
2021/01/26 12:43:43;;;;;;;;;;;;;;;1.40;100.00;100411.53;5110208;28;19950;-67